Time;durP1;ratioP1;P1;durP2;ratioP2;P2;SDS_P1;SDS_P2;PMS_P1;PMS_P2;Temp;Humidity;BMP_temperature;BMP_pressure;BME280_temperature;BME280_humidity;BME280_pressure;Samples;Min_cycle;Max_cycle;Signal;HPM_P1;HPM_P2
2021/01/02 00:00:05;;;;;;;78.80;35.47;;;4.20;92.70;;;;;;5010944;28;20072;-68
2021/01/02 00:02:44;;;;;;;76.87;35.97;;;4.20;92.90;;;;;;5010694;28;20380;-68
2021/01/02 00:05:11;;;;;;;75.07;34.73;;;4.20;93.10;;;;;;5010507;28;20034;-68
2021/01/02 00:07:58;;;;;;;77.83;35.80;;;4.20;93.20;;;;;;5010778;28;20026;-68
2021/01/02 00:10:31;;;;;;;73.57;34.70;;;4.20;93.30;;;;;;5009242;28;20037;-66
2021/01/02 00:12:57;;;;;;;76.07;35.60;;;4.30;93.30;;;;;;5009112;28;20069;-67
2021/01/02 00:15:45;;;;;;;76.10;35.00;;;4.30;93.20;;;;;;5010274;28;20309;-67
2021/01/02 00:18:41;;;;;;;77.47;34.70;;;4.30;93.20;;;;;;5006020;28;20498;-67
2021/01/02 00:21:23;;;;;;;69.43;32.20;;;4.40;93.20;;;;;;5010709;28;20414;-67
2021/01/02 00:24:04;;;;;;;68.57;33.63;;;4.40;93.20;;;;;;5010135;28;20116;-67
2021/01/02 00:26:42;;;;;;;;;;;4.40;93.10;;;;;;5010541;28;20128;-69
2021/01/02 00:29:21;;;;;;;65.90;32.07;;;4.40;93.10;;;;;;5010697;28;19913;-67
2021/01/02 00:32:03;;;;;;;68.10;32.67;;;4.30;93.10;;;;;;5008722;28;20403;-67
2021/01/02 00:34:50;;;;;;;61.67;30.93;;;4.30;93.20;;;;;;5010488;28;20045;-67
2021/01/02 00:37:28;;;;;;;66.07;32.53;;;4.30;93.20;;;;;;5013858;28;20100;-67
2021/01/02 00:40:05;;;;;;;68.63;31.47;;;4.30;93.20;;;;;;5013803;28;20045;-67
2021/01/02 00:42:32;;;;;;;63.60;31.87;;;4.30;93.20;;;;;;5013941;28;20034;-67
2021/01/02 00:45:00;;;;;;;64.43;32.20;;;4.40;93.20;;;;;;5013825;28;20114;-67
2021/01/02 00:47:27;;;;;;;67.20;31.47;;;4.30;93.10;;;;;;5013824;28;20057;-67
2021/01/02 00:49:55;;;;;;;71.07;33.13;;;4.30;93.30;;;;;;5012632;28;20044;-68
2021/01/02 00:52:39;;;;;;;67.73;31.93;;;4.30;93.10;;;;;;4995655;28;20042;-67
2021/01/02 00:55:20;;;;;;;60.20;30.20;;;4.20;93.10;;;;;;5012307;28;20511;-67
2021/01/02 00:57:49;;;;;;;;;;;4.20;93.20;;;;;;5013942;28;20049;-68
2021/01/02 01:00:20;;;;;;;63.33;30.20;;;4.20;93.50;;;;;;5012562;28;19909;-66
2021/01/02 01:03:17;;;;;;;64.07;30.73;;;4.20;93.20;;;;;;5011808;28;20037;-68
2021/01/02 01:05:47;;;;;;;60.57;30.40;;;4.20;93.10;;;;;;5013055;28;20036;-67
2021/01/02 01:08:15;;;;;;;61.50;30.07;;;4.20;93.10;;;;;;5013626;28;20061;-67
2021/01/02 01:10:42;;;;;;;58.57;28.90;;;4.20;93.10;;;;;;5013239;28;20273;-66
2021/01/02 01:13:10;;;;;;;57.07;28.93;;;4.10;93.10;;;;;;5013009;28;20092;-68
2021/01/02 01:15:36;;;;;;;62.57;29.97;;;4.10;93.10;;;;;;5011870;28;20458;-67
2021/01/02 01:18:01;;;;;;;57.80;29.80;;;4.10;93.10;;;;;;5012981;28;20045;-67
2021/01/02 01:20:29;;;;;;;59.87;29.87;;;4.10;93.00;;;;;;5013466;28;20038;-67
2021/01/02 01:23:26;;;;;;;61.17;29.23;;;4.10;93.00;;;;;;4994933;28;20045;-68
2021/01/02 01:26:10;;;;;;;59.93;29.70;;;4.00;93.10;;;;;;5013014;28;20046;-68
2021/01/02 01:28:39;;;;;;;65.53;29.80;;;4.00;93.10;;;;;;5011782;28;20034;-68
2021/01/02 01:31:05;;;;;;;63.00;30.30;;;4.00;93.10;;;;;;5013242;28;20108;-68
2021/01/02 01:33:31;;;;;;;62.53;31.13;;;4.00;93.10;;;;;;5012397;28;20499;-68
2021/01/02 01:36:01;;;;;;;64.23;30.00;;;4.00;93.00;;;;;;5012851;28;20458;-67
2021/01/02 01:38:28;;;;;;;;;;;4.00;92.90;;;;;;5013207;28;20038;-68
2021/01/02 01:41:12;;;;;;;63.27;29.93;;;3.90;92.90;;;;;;5012992;28;19920;-68
2021/01/02 01:43:50;;;;;;;64.80;30.77;;;3.90;92.90;;;;;;5012826;28;20399;-66
2021/01/02 01:46:17;;;;;;;69.23;30.63;;;3.80;92.90;;;;;;5012180;28;20036;-66
2021/01/02 01:48:54;;;;;;;71.17;32.07;;;3.80;92.90;;;;;;5012187;28;20042;-66
2021/01/02 01:51:57;;;;;;;62.40;31.40;;;3.80;93.20;;;;;;5012810;28;20041;-66
2021/01/02 01:54:29;;;;;;;60.40;29.50;;;3.80;93.30;;;;;;5010638;28;20042;-66
2021/01/02 01:57:02;;;;;;;59.67;29.60;;;3.80;93.30;;;;;;4994982;28;20057;-66
2021/01/02 01:59:57;;;;;;;57.63;28.77;;;3.90;93.30;;;;;;5012204;28;20045;-66
2021/01/02 02:02:52;;;;;;;61.07;30.37;;;3.90;93.30;;;;;;5008003;28;20042;-66
2021/01/02 02:05:23;;;;;;;58.13;28.20;;;3.90;93.20;;;;;;5012337;28;20112;-66
2021/01/02 02:08:10;;;;;;;57.47;27.98;;;3.90;93.20;;;;;;5012155;28;20444;-66
2021/01/02 02:10:47;;;;;;;60.90;29.10;;;3.90;93.50;;;;;;5012204;28;20049;-66
2021/01/02 02:13:21;;;;;;;58.43;29.47;;;3.90;93.30;;;;;;5012111;28;20048;-66
2021/01/02 02:15:55;;;;;;;54.37;28.50;;;4.00;93.40;;;;;;5011483;28;20122;-66
2021/01/02 02:18:26;;;;;;;59.33;30.20;;;4.00;93.40;;;;;;5012420;28;20353;-66
2021/01/02 02:21:00;;;;;;;56.72;27.92;;;4.10;93.50;;;;;;5011914;28;20034;-66
2021/01/02 02:23:43;;;;;;;56.57;28.57;;;4.10;93.50;;;;;;5011953;28;20026;-66
2021/01/02 02:26:17;;;;;;;57.27;28.57;;;4.10;93.40;;;;;;5010469;28;20026;-66
2021/01/02 02:28:52;;;;;;;52.93;27.03;;;4.10;93.40;;;;;;5012253;28;20034;-66
2021/01/02 02:31:19;;;;;;;55.67;28.27;;;4.10;93.30;;;;;;5011935;28;20483;-66
2021/01/02 02:34:03;;;;;;;53.50;27.43;;;4.10;93.30;;;;;;5011798;28;20052;-66
2021/01/02 02:36:30;;;;;;;54.33;27.80;;;4.20;93.40;;;;;;5011388;28;20061;-66
2021/01/02 02:39:04;;;;;;;50.83;26.13;;;4.20;93.30;;;;;;5011951;28;20116;-66
2021/01/02 02:41:35;;;;;;;51.37;26.90;;;4.20;93.30;;;;;;5011803;28;20061;-66
2021/01/02 02:44:03;;;;;;;55.57;27.30;;;4.20;93.30;;;;;;5011771;28;20041;-66
2021/01/02 02:46:33;;;;;;;51.90;26.93;;;4.10;93.20;;;;;;5009879;28;20038;-66
2021/01/02 02:49:05;;;;;;;50.03;26.50;;;4.10;93.20;;;;;;5011706;28;20053;-66
2021/01/02 02:51:47;;;;;;;50.10;27.20;;;4.10;93.20;;;;;;5011439;28;20074;-66
2021/01/02 02:54:13;;;;;;;50.27;26.90;;;4.10;93.10;;;;;;5010089;28;20040;-66
2021/01/02 02:56:39;;;;;;;56.57;28.43;;;4.10;93.10;;;;;;5009907;28;20077;-66
2021/01/02 02:59:05;;;;;;;53.70;26.33;;;4.00;93.00;;;;;;5010743;28;20432;-66
2021/01/02 03:01:31;;;;;;;53.80;29.60;;;4.00;93.10;;;;;;5009812;28;20112;-66
2021/01/02 03:03:57;;;;;;;59.40;28.67;;;4.00;93.20;;;;;;5010070;28;20117;-66
2021/01/02 03:06:24;;;;;;;53.23;27.77;;;4.00;93.30;;;;;;5009967;28;20038;-66
2021/01/02 03:08:54;;;;;;;50.00;26.57;;;4.00;93.60;;;;;;5009895;28;20038;-66
2021/01/02 03:11:26;;;;;;;56.30;27.65;;;4.00;93.40;;;;;;5011512;28;20034;-66
2021/01/02 03:13:53;;;;;;;54.23;27.33;;;4.10;93.40;;;;;;5010470;28;20084;-66
2021/01/02 03:16:20;;;;;;;50.10;27.37;;;4.10;93.40;;;;;;5011080;28;20392;-66
2021/01/02 03:18:46;;;;;;;52.50;27.23;;;4.10;93.30;;;;;;5011045;28;20116;-66
2021/01/02 03:21:12;;;;;;;55.03;28.20;;;4.10;93.30;;;;;;5010005;28;20042;-66
2021/01/02 03:23:58;;;;;;;51.63;26.40;;;4.10;93.30;;;;;;4993569;28;20091;-66
2021/01/02 03:26:24;;;;;;;49.73;26.43;;;4.10;93.20;;;;;;5009402;28;20404;-66
2021/01/02 03:28:51;;;;;;;55.80;27.60;;;4.10;93.20;;;;;;5011443;28;20089;-66
2021/01/02 03:31:18;;;;;;;53.90;27.80;;;4.10;93.20;;;;;;5010888;28;20049;-66
2021/01/02 03:33:44;;;;;;;53.17;27.37;;;4.10;93.20;;;;;;5009686;28;20451;-66
2021/01/02 03:36:10;;;;;;;54.33;27.00;;;4.00;93.30;;;;;;5010686;28;20042;-66
2021/01/02 03:38:37;;;;;;;52.63;27.30;;;4.10;93.40;;;;;;5010638;28;20038;-66
2021/01/02 03:41:03;;;;;;;49.57;26.67;;;4.10;93.30;;;;;;5011035;28;20060;-66
2021/01/02 03:43:28;;;;;;;58.70;28.43;;;4.10;93.40;;;;;;5009218;28;20503;-66
2021/01/02 03:45:55;;;;;;;55.30;28.77;;;4.20;93.50;;;;;;5010837;28;20034;-66
2021/01/02 03:48:20;;;;;;;57.17;28.20;;;4.20;93.40;;;;;;5010964;28;20030;-66
2021/01/02 03:50:46;;;;;;;55.27;28.77;;;4.20;93.60;;;;;;5009482;28;20033;-66
2021/01/02 03:53:12;;;;;;;54.17;28.47;;;4.20;93.50;;;;;;5009555;28;20044;-66
2021/01/02 03:55:40;;;;;;;50.80;26.83;;;4.30;93.40;;;;;;5010372;28;20112;-66
2021/01/02 03:58:06;;;;;;;55.73;28.87;;;4.30;93.30;;;;;;4977300;28;20516;-66
2021/01/02 04:00:32;;;;;;;52.73;27.87;;;4.30;93.30;;;;;;5009586;28;20403;-66
2021/01/02 04:02:59;;;;;;;56.30;27.87;;;4.30;93.30;;;;;;5010150;28;20026;-66
2021/01/02 04:05:24;;;;;;;56.47;28.97;;;4.30;93.40;;;;;;5010541;28;20040;-66
2021/01/02 04:07:50;;;;;;;55.53;27.60;;;4.30;93.30;;;;;;5010375;28;20042;-66
2021/01/02 04:10:16;;;;;;;53.70;28.53;;;4.30;93.60;;;;;;5012313;28;20121;-66
2021/01/02 04:12:41;;;;;;;58.60;28.97;;;4.30;93.40;;;;;;5014486;28;20052;-66
2021/01/02 04:15:07;;;;;;;48.17;26.70;;;4.30;93.30;;;;;;5013923;28;20061;-66
2021/01/02 04:17:33;;;;;;;55.53;28.40;;;4.30;93.30;;;;;;5014607;28;20042;-66
2021/01/02 04:19:59;;;;;;;51.47;28.40;;;4.30;93.30;;;;;;5014180;28;20121;-66
2021/01/02 04:22:25;;;;;;;54.90;27.67;;;4.40;93.40;;;;;;5014232;28;20498;-66
2021/01/02 04:24:50;;;;;;;56.23;29.13;;;4.40;93.40;;;;;;5014209;28;20046;-66
2021/01/02 04:27:16;;;;;;;53.00;28.30;;;4.40;93.30;;;;;;5012699;28;20037;-66
2021/01/02 04:29:42;;;;;;;51.53;27.70;;;4.40;93.30;;;;;;5014658;28;20092;-66
2021/01/02 04:32:07;;;;;;;50.87;26.27;;;4.40;93.20;;;;;;4996124;28;20048;-66
2021/01/02 04:34:33;;;;;;;52.83;28.17;;;4.40;93.20;;;;;;5014073;28;20483;-66
2021/01/02 04:36:59;;;;;;;54.67;28.13;;;4.40;93.20;;;;;;5012949;28;20041;-66
2021/01/02 04:39:25;;;;;;;50.33;27.17;;;4.40;93.30;;;;;;5013747;28;20062;-66
2021/01/02 04:41:50;;;;;;;55.23;28.80;;;4.40;93.30;;;;;;5014050;28;20535;-66
2021/01/02 04:44:17;;;;;;;50.63;27.60;;;4.40;93.20;;;;;;5013510;28;20038;-66
2021/01/02 04:46:44;;;;;;;53.43;28.47;;;4.40;93.20;;;;;;5012803;28;20045;-66
2021/01/02 04:49:10;;;;;;;54.33;28.43;;;4.40;93.20;;;;;;5013913;28;20499;-66
2021/01/02 04:51:36;;;;;;;52.30;26.33;;;4.40;93.20;;;;;;5013516;28;20117;-66
2021/01/02 04:54:04;;;;;;;54.23;27.47;;;4.40;93.20;;;;;;5013737;28;20517;-66
2021/01/02 04:56:35;;;;;;;50.97;26.90;;;4.40;93.30;;;;;;5012556;28;20403;-66
2021/01/02 04:59:01;;;;;;;;;;;4.40;93.30;;;;;;5013974;28;20037;-66
2021/01/02 05:01:28;;;;;;;51.43;26.07;;;4.50;93.30;;;;;;5013821;28;19914;-66
2021/01/02 05:03:54;;;;;;;51.00;26.80;;;4.40;93.20;;;;;;5013090;28;20117;-66
2021/01/02 05:06:22;;;;;;;53.17;27.53;;;4.40;93.40;;;;;;5013505;28;20498;-66
2021/01/02 05:08:51;;;;;;;55.27;28.53;;;4.40;93.20;;;;;;5013332;28;20409;-66
2021/01/02 05:11:20;;;;;;;55.43;27.40;;;4.40;93.40;;;;;;5013708;28;20045;-66
2021/01/02 05:13:47;;;;;;;57.17;28.10;;;4.40;93.30;;;;;;5011579;28;20033;-67
2021/01/02 05:16:30;;;;;;;54.43;27.53;;;4.50;93.30;;;;;;5013207;28;20490;-66
2021/01/02 05:19:01;;;;;;;52.03;27.63;;;4.40;93.30;;;;;;5011594;28;20037;-66
2021/01/02 05:21:28;;;;;;;49.45;27.60;;;4.40;93.40;;;;;;5012502;28;20064;-66
2021/01/02 05:24:22;;;;;;;54.50;27.73;;;4.50;93.30;;;;;;5011847;28;20546;-66
2021/01/02 05:26:56;;;;;;;54.90;27.40;;;4.50;93.40;;;;;;5012576;28;20030;-66
2021/01/02 05:29:30;;;;;;;50.97;26.43;;;4.50;93.40;;;;;;5013270;28;20030;-66
2021/01/02 05:31:57;;;;;;;50.60;26.23;;;4.50;93.40;;;;;;5012506;28;20030;-66
2021/01/02 05:34:25;;;;;;;50.07;26.13;;;4.50;93.40;;;;;;5012997;28;20040;-66
2021/01/02 05:37:09;;;;;;;56.63;27.67;;;4.50;93.50;;;;;;5012648;28;20037;-67
2021/01/02 05:39:40;;;;;;;51.67;26.43;;;4.50;93.40;;;;;;5012996;28;20026;-66
2021/01/02 05:42:07;;;;;;;49.30;26.80;;;4.60;93.50;;;;;;5012357;28;20030;-66
2021/01/02 05:44:36;;;;;;;57.87;28.00;;;4.60;93.40;;;;;;5012751;28;20034;-66
2021/01/02 05:47:03;;;;;;;54.30;26.83;;;4.60;93.40;;;;;;5011276;28;20403;-66
2021/01/02 05:49:48;;;;;;;53.23;27.07;;;4.50;93.50;;;;;;5011577;28;20045;-66
2021/01/02 05:52:15;;;;;;;51.37;26.57;;;4.60;93.40;;;;;;5012265;28;20030;-66
2021/01/02 05:54:47;;;;;;;48.77;26.13;;;4.60;93.40;;;;;;5011338;28;20038;-66
2021/01/02 05:57:14;;;;;;;53.73;27.50;;;4.50;93.40;;;;;;5012107;28;20088;-66
2021/01/02 05:59:42;;;;;;;48.67;25.63;;;4.60;93.50;;;;;;5012714;28;20391;-66
2021/01/02 06:02:20;;;;;;;53.17;26.77;;;4.60;93.40;;;;;;5011951;28;20510;-66
2021/01/02 06:05:13;;;;;;;54.53;26.47;;;4.60;93.50;;;;;;5012409;28;20029;-67
2021/01/02 06:07:47;;;;;;;52.27;26.67;;;4.60;93.30;;;;;;5012022;28;20040;-66
2021/01/02 06:10:13;;;;;;;51.57;25.60;;;4.60;93.30;;;;;;5012683;28;20534;-66
2021/01/02 06:12:40;;;;;;;54.57;27.87;;;4.60;93.30;;;;;;5012064;28;20041;-66
2021/01/02 06:15:10;;;;;;;56.20;27.03;;;4.50;93.30;;;;;;5012139;28;20044;-66
2021/01/02 06:17:38;;;;;;;53.67;26.88;;;4.50;93.30;;;;;;5011849;28;20515;-66
2021/01/02 06:20:06;;;;;;;58.23;29.63;;;4.50;93.40;;;;;;4994881;28;20038;-66
2021/01/02 06:22:32;;;;;;;56.60;29.07;;;4.50;93.40;;;;;;5011891;28;20450;-66
2021/01/02 06:24:59;;;;;;;59.73;28.77;;;4.50;93.40;;;;;;5011927;28;20034;-66
2021/01/02 06:27:26;;;;;;;56.97;29.40;;;4.50;93.40;;;;;;5011006;28;20542;-66
2021/01/02 06:29:58;;;;;;;56.20;28.83;;;4.50;93.50;;;;;;5010494;28;20046;-66
2021/01/02 06:32:25;;;;;;;58.03;29.40;;;4.60;93.50;;;;;;5011817;28;20037;-66
2021/01/02 06:35:06;;;;;;;56.43;28.20;;;4.50;93.40;;;;;;5010204;28;20407;-66
2021/01/02 06:37:47;;;;;;;56.17;29.05;;;4.50;93.40;;;;;;5011845;28;20076;-66
2021/01/02 06:40:21;;;;;;;;;;;4.50;93.50;;;;;;5012209;28;20116;-66
2021/01/02 06:42:54;;;;;;;60.63;29.07;;;4.50;93.40;;;;;;5010536;28;20405;-66
2021/01/02 06:45:38;;;;;;;59.07;28.47;;;4.50;93.40;;;;;;5009869;28;20391;-66
2021/01/02 06:48:15;;;;;;;57.10;28.10;;;4.50;93.50;;;;;;5011556;28;20049;-66
2021/01/02 06:50:45;;;;;;;61.67;30.40;;;4.50;93.40;;;;;;5011043;28;20058;-66
2021/01/02 06:53:28;;;;;;;62.63;30.57;;;4.50;93.50;;;;;;5009773;28;20045;-67
2021/01/02 06:56:08;;;;;;;55.87;28.63;;;4.50;93.50;;;;;;5010275;28;20065;-66
2021/01/02 06:58:55;;;;;;;58.95;28.75;;;4.50;93.50;;;;;;5010178;28;20505;-66
2021/01/02 07:01:21;;;;;;;57.80;28.33;;;4.50;93.60;;;;;;5009664;28;20045;-66
2021/01/02 07:03:51;;;;;;;56.57;27.17;;;4.60;93.60;;;;;;5011312;28;20026;-66
2021/01/02 07:06:21;;;;;;;53.95;28.27;;;4.60;93.60;;;;;;5011388;28;20061;-66
2021/01/02 07:09:00;;;;;;;55.80;28.33;;;4.60;93.40;;;;;;5010013;28;20038;-66
2021/01/02 07:11:33;;;;;;;62.00;28.87;;;4.50;93.40;;;;;;5011468;28;20105;-66
2021/01/02 07:14:20;;;;;;;59.33;28.50;;;4.50;93.40;;;;;;5010695;28;20046;-66
2021/01/02 07:16:53;;;;;;;58.50;28.97;;;4.50;93.50;;;;;;5010987;28;20037;-66
2021/01/02 07:22:16;;;;;;;57.03;28.70;;;4.50;93.50;;;;;;5010501;28;20467;-66
2021/01/02 07:24:47;;;;;;;57.08;28.48;;;4.50;93.50;;;;;;5011111;28;20069;-66
2021/01/02 07:27:17;;;;;;;59.60;29.50;;;4.50;93.60;;;;;;5009652;28;20052;-66
2021/01/02 07:29:51;;;;;;;53.10;28.50;;;4.50;93.50;;;;;;5011235;28;20030;-66
2021/01/02 07:32:27;;;;;;;58.17;28.50;;;4.50;93.50;;;;;;5010449;28;20042;-66
2021/01/02 07:34:58;;;;;;;56.97;27.67;;;4.50;93.50;;;;;;5010961;28;20033;-66
2021/01/02 07:37:27;;;;;;;61.50;29.90;;;4.50;93.50;;;;;;5010739;28;20041;-66
2021/01/02 07:39:54;;;;;;;58.27;29.03;;;4.60;93.50;;;;;;5011193;28;20129;-67
2021/01/02 07:42:22;;;;;;;57.30;29.53;;;4.60;93.60;;;;;;5010493;28;20042;-66
2021/01/02 07:44:57;;;;;;;61.97;29.93;;;4.50;93.70;;;;;;5013139;28;20034;-68
2021/01/02 07:47:23;;;;;;;59.53;28.83;;;4.60;93.50;;;;;;5017391;28;20087;-68
2021/01/02 07:49:49;;;;;;;65.73;30.27;;;4.60;93.50;;;;;;5016178;28;20422;-68
2021/01/02 07:52:15;;;;;;;56.23;28.60;;;4.60;93.50;;;;;;5016404;28;20030;-68
2021/01/02 07:54:41;;;;;;;56.07;28.93;;;4.60;93.40;;;;;;4999295;28;20044;-67
2021/01/02 07:57:08;;;;;;;59.27;29.37;;;4.60;93.50;;;;;;5017420;28;20491;-68
2021/01/02 07:59:39;;;;;;;55.07;27.03;;;4.60;93.70;;;;;;5015763;28;20053;-68
2021/01/02 08:02:07;;;;;;;57.23;28.33;;;4.60;93.50;;;;;;5017144;28;20533;-67
2021/01/02 08:04:34;;;;;;;55.27;27.57;;;4.60;93.60;;;;;;5016795;28;20534;-67
2021/01/02 08:07:06;;;;;;;56.70;28.33;;;4.60;93.50;;;;;;5017593;28;20410;-68
2021/01/02 08:09:33;;;;;;;58.33;28.63;;;4.70;93.50;;;;;;5014859;28;20045;-69
2021/01/02 08:12:09;;;;;;;55.30;28.03;;;4.70;93.40;;;;;;5016987;28;20076;-68
2021/01/02 08:14:37;;;;;;;53.43;27.00;;;4.70;93.30;;;;;;5015624;28;20046;-68
2021/01/02 08:17:03;;;;;;;57.43;28.03;;;4.70;93.40;;;;;;5017063;28;20060;-68
2021/01/02 08:19:30;;;;;;;55.60;27.60;;;4.60;93.40;;;;;;5015943;28;20502;-68
2021/01/02 08:21:57;;;;;;;54.87;27.70;;;4.70;93.40;;;;;;5016537;28;20037;-68
2021/01/02 08:24:22;;;;;;;54.77;27.87;;;4.70;93.50;;;;;;4998050;28;20045;-68
2021/01/02 08:26:49;;;;;;;55.83;28.17;;;4.70;93.50;;;;;;5016958;28;20045;-68
2021/01/02 08:29:15;;;;;;;52.20;26.60;;;4.70;93.50;;;;;;5017123;28;20084;-68
2021/01/02 08:31:57;;;;;;;60.07;28.43;;;4.70;93.30;;;;;;5016716;28;20533;-68
2021/01/02 08:34:27;;;;;;;58.13;27.27;;;4.70;93.40;;;;;;5015408;28;20038;-68
2021/01/02 08:36:58;;;;;;;54.17;26.47;;;4.80;93.30;;;;;;5017042;28;20053;-68
2021/01/02 08:39:24;;;;;;;53.17;25.77;;;4.80;93.30;;;;;;5016801;28;20030;-68
2021/01/02 08:41:54;;;;;;;56.73;27.83;;;4.70;93.20;;;;;;5015489;28;20060;-68
2021/01/02 08:44:43;;;;;;;55.55;27.42;;;4.70;93.30;;;;;;5016240;28;20033;-69
2021/01/02 08:47:09;;;;;;;55.23;27.83;;;4.70;93.30;;;;;;5016738;28;20427;-69
2021/01/02 08:49:45;;;;;;;56.33;27.43;;;4.70;93.40;;;;;;5015713;28;20041;-68
2021/01/02 08:52:22;;;;;;;52.43;25.53;;;4.70;93.50;;;;;;5015579;28;20045;-68
2021/01/02 08:54:51;;;;;;;58.67;27.93;;;4.80;93.40;;;;;;5016463;28;20555;-68
2021/01/02 08:57:31;;;;;;;61.83;28.90;;;4.80;93.40;;;;;;5014174;28;20483;-69
2021/01/02 09:00:13;;;;;;;62.95;29.40;;;4.80;93.20;;;;;;5012504;28;20045;-68
2021/01/02 09:02:47;;;;;;;58.37;26.90;;;4.90;93.30;;;;;;5013333;28;20037;-68
2021/01/02 09:05:25;;;;;;;62.93;29.03;;;4.80;93.20;;;;;;5012286;28;20102;-69
2021/01/02 09:08:07;;;;;;;63.33;29.77;;;4.90;93.30;;;;;;5012881;28;20049;-68
2021/01/02 09:10:43;;;;;;;58.30;28.30;;;4.90;93.40;;;;;;5013547;28;20133;-68
2021/01/02 09:13:25;;;;;;;59.50;28.90;;;4.80;93.10;;;;;;5011406;28;20048;-68
2021/01/02 09:16:03;;;;;;;57.43;27.70;;;4.80;93.10;;;;;;5011201;28;20475;-69
2021/01/02 09:18:32;;;;;;;67.43;30.27;;;4.80;93.20;;;;;;4994828;28;20046;-69
2021/01/02 09:21:06;;;;;;;63.20;29.93;;;4.80;93.20;;;;;;5044441;28;20046;-68
2021/01/02 09:23:34;;;;;;;64.77;31.37;;;4.80;93.30;;;;;;5012720;28;20041;-69
2021/01/02 09:26:00;;;;;;;61.67;29.83;;;4.80;93.20;;;;;;5010325;28;20080;-68
2021/01/02 09:28:26;;;;;;;61.57;29.93;;;4.80;93.30;;;;;;5012925;28;20058;-69
2021/01/02 09:30:53;;;;;;;63.80;29.40;;;4.80;93.30;;;;;;5013136;28;20499;-69
2021/01/02 09:33:19;;;;;;;60.90;29.27;;;4.80;93.10;;;;;;5013004;28;20044;-69
2021/01/02 09:35:46;;;;;;;62.23;29.90;;;4.80;93.20;;;;;;5012492;28;20042;-69
2021/01/02 09:38:13;;;;;;;62.03;29.43;;;4.80;93.30;;;;;;5013121;28;20530;-69
2021/01/02 09:40:43;;;;;;;61.97;29.03;;;4.80;93.20;;;;;;5012631;28;20079;-68
2021/01/02 09:43:12;;;;;;;58.88;27.60;;;4.90;93.20;;;;;;5011461;28;20037;-68
2021/01/02 09:45:38;;;;;;;58.07;28.43;;;4.90;93.20;;;;;;5012365;28;20038;-69
2021/01/02 09:48:05;;;;;;;54.90;26.83;;;4.90;93.10;;;;;;5013101;28;20460;-69
2021/01/02 09:50:32;;;;;;;56.07;27.50;;;4.90;93.40;;;;;;5013074;28;20037;-69
2021/01/02 09:52:57;;;;;;;55.90;27.50;;;4.90;93.10;;;;;;5012062;28;20487;-68
2021/01/02 09:55:23;;;;;;;58.50;27.17;;;4.90;93.20;;;;;;5011402;28;20087;-68
2021/01/02 09:57:49;;;;;;;60.33;29.17;;;4.90;93.10;;;;;;5012340;28;20053;-69
2021/01/02 10:00:16;;;;;;;59.97;28.93;;;4.90;93.10;;;;;;5011506;28;20085;-69
2021/01/02 10:02:42;;;;;;;60.33;27.40;;;4.90;93.30;;;;;;5011044;28;20037;-69
2021/01/02 10:05:09;;;;;;;55.07;26.93;;;5.00;93.30;;;;;;5012051;28;20499;-68
2021/01/02 10:07:35;;;;;;;53.90;26.77;;;5.00;93.10;;;;;;5010646;28;20038;-69
2021/01/02 10:10:01;;;;;;;53.83;26.70;;;5.00;93.20;;;;;;5011013;28;20621;-69
2021/01/02 10:12:27;;;;;;;59.60;29.10;;;5.00;93.00;;;;;;5012050;28;20030;-69
2021/01/02 10:14:53;;;;;;;50.17;25.37;;;5.00;93.00;;;;;;4994699;28;20045;-69
2021/01/02 10:17:18;;;;;;;50.20;25.37;;;5.00;93.10;;;;;;4994453;28;20041;-68
2021/01/02 10:19:46;;;;;;;54.50;26.37;;;5.10;93.10;;;;;;5011217;28;20041;-69
2021/01/02 10:22:13;;;;;;;54.57;26.43;;;5.10;93.10;;;;;;5011581;28;20049;-69
2021/01/02 10:24:39;;;;;;;50.20;24.77;;;5.10;92.90;;;;;;5012058;28;20100;-69
2021/01/02 10:27:07;;;;;;;52.00;25.27;;;5.10;93.00;;;;;;5011091;28;20590;-68
2021/01/02 10:29:36;;;;;;;52.57;26.20;;;5.10;93.10;;;;;;5009380;28;20033;-68
2021/01/02 10:32:04;;;;;;;54.70;26.17;;;5.10;92.80;;;;;;5009865;28;20096;-69
2021/01/02 10:34:30;;;;;;;51.30;25.93;;;5.10;92.80;;;;;;5010064;28;20049;-70
2021/01/02 10:36:56;;;;;;;52.97;26.13;;;5.10;93.00;;;;;;5009965;28;20069;-69
2021/01/02 10:39:22;;;;;;;53.43;25.70;;;5.10;92.90;;;;;;5010304;28;20410;-70
2021/01/02 10:41:50;;;;;;;56.20;26.63;;;5.10;93.10;;;;;;5011351;28;20054;-69
2021/01/02 10:44:18;;;;;;;56.70;26.63;;;5.10;92.90;;;;;;5009281;28;20052;-68
2021/01/02 10:46:50;;;;;;;56.30;26.20;;;5.20;93.00;;;;;;5011595;28;20037;-69
2021/01/02 10:49:17;;;;;;;51.87;25.17;;;5.20;92.80;;;;;;5011545;28;20495;-69
2021/01/02 10:51:45;;;;;;;52.10;26.13;;;5.20;92.70;;;;;;5010740;28;20094;-69
2021/01/02 10:54:13;;;;;;;51.23;25.23;;;5.20;92.80;;;;;;5010187;28;20038;-69
2021/01/02 10:56:45;;;;;;;53.10;26.80;;;5.10;92.60;;;;;;5009803;28;20041;-69
2021/01/02 10:59:11;;;;;;;48.63;24.60;;;5.10;92.60;;;;;;5010464;28;20034;-69
2021/01/02 11:01:42;;;;;;;48.07;24.87;;;5.00;92.70;;;;;;5010425;28;20026;-68
2021/01/02 11:04:08;;;;;;;52.50;25.90;;;5.00;92.80;;;;;;5010076;28;20059;-69
2021/01/02 11:06:35;;;;;;;53.60;25.57;;;5.10;92.90;;;;;;5006429;28;20037;-69
2021/01/02 11:09:01;;;;;;;51.67;25.53;;;5.10;92.90;;;;;;5009895;28;20041;-69
2021/01/02 11:11:27;;;;;;;53.80;26.33;;;5.10;92.90;;;;;;5010521;28;20034;-68
2021/01/02 11:13:52;;;;;;;49.93;24.80;;;5.10;92.70;;;;;;5010001;28;20049;-69
2021/01/02 11:16:18;;;;;;;47.53;23.90;;;5.20;92.70;;;;;;5007591;28;20028;-69
2021/01/02 11:18:44;;;;;;;50.57;26.13;;;5.20;92.80;;;;;;5010099;28;20034;-68
2021/01/02 11:21:10;;;;;;;45.97;24.93;;;5.20;92.80;;;;;;5008799;28;20062;-69
2021/01/02 11:23:37;;;;;;;42.27;22.43;;;5.20;92.70;;;;;;4991876;28;20054;-68
2021/01/02 11:26:12;;;;;;;39.60;21.63;;;5.30;92.90;;;;;;4992250;28;20034;-67
2021/01/02 11:28:38;;;;;;;40.57;20.30;;;5.40;93.00;;;;;;5006003;28;20499;-68
2021/01/02 11:31:03;;;;;;;35.30;18.63;;;5.50;93.20;;;;;;5008457;28;20033;-70
2021/01/02 11:33:29;;;;;;;33.03;18.27;;;5.70;93.10;;;;;;5009429;28;20563;-68
2021/01/02 11:35:55;;;;;;;35.27;18.57;;;5.70;92.70;;;;;;5009500;28;20087;-68
2021/01/02 11:38:20;;;;;;;34.07;18.47;;;5.70;92.50;;;;;;5008623;28;20057;-68
2021/01/02 11:40:50;;;;;;;33.10;18.73;;;5.60;92.60;;;;;;5008549;28;20431;-69
2021/01/02 11:43:16;;;;;;;33.47;18.03;;;5.60;92.40;;;;;;5009184;28;20410;-69
2021/01/02 11:45:41;;;;;;;39.80;21.80;;;5.50;92.40;;;;;;5009482;28;20042;-68
2021/01/02 11:48:07;;;;;;;41.57;21.00;;;5.50;92.40;;;;;;5009051;28;20034;-69
2021/01/02 11:50:33;;;;;;;43.13;22.87;;;5.50;92.40;;;;;;5009906;28;20403;-68
2021/01/02 11:52:59;;;;;;;45.40;24.10;;;5.50;92.40;;;;;;5009428;28;20117;-68
2021/01/02 11:55:24;;;;;;;48.83;24.20;;;5.40;92.30;;;;;;5009998;28;20088;-68
2021/01/02 11:57:50;;;;;;;52.60;27.27;;;5.40;92.30;;;;;;5009780;28;20049;-69
2021/01/02 12:00:16;;;;;;;44.40;23.70;;;5.40;92.40;;;;;;5009400;28;20129;-69
2021/01/02 12:02:42;;;;;;;51.20;24.60;;;5.30;92.50;;;;;;5009728;28;20511;-69
2021/01/02 12:05:08;;;;;;;48.07;24.17;;;5.30;92.50;;;;;;5008236;28;20038;-69
2021/01/02 12:07:36;;;;;;;51.03;26.67;;;5.40;92.60;;;;;;5010518;28;20112;-69
2021/01/02 12:10:06;;;;;;;45.60;22.90;;;5.40;92.60;;;;;;5009001;28;20056;-67
2021/01/02 12:12:32;;;;;;;46.65;24.92;;;5.40;92.70;;;;;;5010555;28;20061;-67
2021/01/02 12:14:58;;;;;;;43.87;24.07;;;5.40;92.60;;;;;;5010392;28;20113;-66
2021/01/02 12:17:24;;;;;;;51.47;26.80;;;5.50;92.40;;;;;;5009312;28;20049;-68
2021/01/02 12:19:49;;;;;;;52.63;26.27;;;5.50;92.50;;;;;;5010695;28;20407;-69
2021/01/02 12:22:15;;;;;;;46.13;23.47;;;5.50;92.50;;;;;;5008672;28;20038;-69
2021/01/02 12:24:42;;;;;;;46.47;23.77;;;5.50;92.40;;;;;;5010363;28;20049;-69
2021/01/02 12:27:09;;;;;;;48.80;24.23;;;5.50;92.80;;;;;;5009399;28;20561;-68
2021/01/02 12:29:36;;;;;;;46.03;24.03;;;5.50;92.30;;;;;;4992506;28;20030;-68
2021/01/02 12:32:06;;;;;;;50.47;24.43;;;5.40;92.20;;;;;;4994468;28;20077;-68
2021/01/02 12:34:37;;;;;;;51.08;25.38;;;5.40;92.40;;;;;;5013198;28;20045;-68
2021/01/02 12:37:07;;;;;;;48.35;23.70;;;5.40;92.70;;;;;;5014109;28;20092;-68
2021/01/02 12:39:34;;;;;;;46.92;24.52;;;5.50;92.90;;;;;;5013710;28;20447;-69
2021/01/02 12:42:01;;;;;;;45.80;22.90;;;5.70;93.20;;;;;;5013423;28;20049;-69
2021/01/02 12:44:28;;;;;;;42.20;22.30;;;5.90;93.30;;;;;;5013238;28;20062;-69
2021/01/02 12:46:59;;;;;;;40.83;21.40;;;6.10;93.20;;;;;;5013570;28;20121;-69
2021/01/02 12:49:29;;;;;;;39.23;20.93;;;6.30;93.00;;;;;;5013840;28;20034;-69
2021/01/02 12:51:56;;;;;;;34.47;17.53;;;6.40;92.90;;;;;;5012935;28;20037;-70
2021/01/02 12:54:22;;;;;;;33.60;18.73;;;6.50;92.60;;;;;;5013691;28;20034;-70
2021/01/02 12:56:50;;;;;;;32.10;17.37;;;6.60;92.50;;;;;;5013432;28;20037;-70